Time;durP1;ratioP1;P1;durP2;ratioP2;P2;SDS_P1;SDS_P2;PMS_P1;PMS_P2;Temp;Humidity;BMP_temperature;BMP_pressure;BME280_temperature;BME280_humidity;BME280_pressure;Samples;Min_cycle;Max_cycle;Signal;HPM_P1;HPM_P2
2022/08/24 00:01:15;;;;;;;9.58;7.30;;;;;;;20.16;100.00;99279.58;1740216;82;21031;-50
2022/08/24 00:03:43;;;;;;;12.07;7.30;;;;;;;20.18;100.00;99270.92;1740253;82;21019;-60
2022/08/24 00:06:14;;;;;;;8.90;6.60;;;;;;;20.19;100.00;99264.58;1740194;82;20964;-48
2022/08/24 00:08:41;;;;;;;12.68;7.05;;;;;;;20.20;100.00;99263.10;1740301;82;20960;-52
2022/08/24 00:11:07;;;;;;;14.25;7.10;;;;;;;20.21;99.86;99263.46;1740337;82;21039;-53
2022/08/24 00:13:34;;;;;;;8.93;6.53;;;;;;;20.22;100.00;99259.78;1740377;82;21023;-51
2022/08/24 00:16:01;;;;;;;12.68;6.50;;;;;;;20.18;100.00;99266.41;1740433;82;20964;-48
2022/08/24 00:18:27;;;;;;;13.67;6.50;;;;;;;20.20;100.00;99260.94;1740526;82;21315;-53
2022/08/24 00:20:53;;;;;;;10.15;6.58;;;;;;;20.23;100.00;99268.63;1740363;82;21493;-49
2022/08/24 00:23:19;;;;;;;14.50;6.08;;;;;;;20.24;99.83;99264.48;1740345;82;20986;-46
2022/08/24 00:25:45;;;;;;;8.85;6.42;;;;;;;20.27;99.41;99261.52;1740186;82;21572;-54
2022/08/24 00:28:12;;;;;;;16.85;6.58;;;;;;;20.28;99.36;99255.20;1740331;81;20987;-53
2022/08/24 00:30:38;;;;;;;14.78;7.75;;;;;;;20.30;99.12;99252.36;1740621;82;21015;-50
2022/08/24 00:33:03;;;;;;;10.10;6.47;;;;;;;20.32;98.61;99259.25;1740372;82;20967;-43
2022/08/24 00:35:30;;;;;;;11.12;6.72;;;;;;;20.33;98.60;99251.58;1740333;82;21540;-51
2022/08/24 00:37:56;;;;;;;13.03;6.70;;;;;;;20.32;99.35;99244.57;1740491;82;21473;-45
2022/08/24 00:40:33;;;;;;;15.63;6.75;;;;;;;20.29;98.64;99240.85;1740145;82;22194;-51
2022/08/24 00:43:02;;;;;;;19.42;8.15;;;;;;;20.35;98.19;99250.60;1740341;82;20972;-53
2022/08/24 00:45:31;;;;;;;12.53;7.33;;;;;;;20.37;98.05;99248.62;1740198;82;20980;-56
2022/08/24 00:48:02;;;;;;;10.48;6.25;;;;;;;20.38;98.29;99250.31;1730219;81;21019;-50
2022/08/24 00:50:39;;;;;;;13.72;6.15;;;;;;;20.39;98.08;99246.63;1744691;82;21426;-44
2022/08/24 00:53:13;;;;;;;10.68;6.00;;;;;;;20.40;97.48;99246.99;1744246;81;21623;-47
2022/08/24 00:55:47;;;;;;;12.25;5.25;;;;;;;20.42;97.37;99246.34;1743484;82;20983;-49
2022/08/24 00:58:19;;;;;;;9.78;5.72;;;;;;;20.42;96.99;99247.68;1744705;82;21026;-52
2022/08/24 01:00:50;;;;;;;13.83;6.25;;;;;;;20.42;96.88;99250.35;1744728;82;20990;-50
2022/08/24 01:03:17;;;;;;;9.60;5.85;;;;;;;20.44;96.63;99251.04;1743879;82;21036;-51
2022/08/24 01:05:43;;;;;;;13.72;5.97;;;;;;;20.46;96.44;99249.89;1744821;81;20991;-49
2022/08/24 01:08:11;;;;;;;10.93;5.83;;;;;;;20.46;96.59;99245.87;1744666;82;20956;-46
2022/08/24 01:10:42;;;;;;;11.30;5.78;;;;;;;20.45;96.57;99251.40;1744769;82;20986;-54
2022/08/24 01:13:10;;;;;;;11.20;5.40;;;;;;;20.45;96.54;99254.07;1744738;82;20955;-51
2022/08/24 01:15:40;;;;;;;11.65;5.60;;;;;;;20.42;96.98;99252.52;1744721;81;21444;-56
2022/08/24 01:21:23;;;;;;;13.88;5.72;;;;;;;20.45;96.29;99258.08;1744703;82;20979;-50
2022/08/24 01:23:54;;;;;;;10.10;5.53;;;;;;;20.46;95.92;99267.25;1744551;82;20987;-53
2022/08/24 01:26:38;;;;;;;10.38;6.03;;;;;;;20.41;96.11;99266.02;1744580;82;20983;-48
2022/08/24 01:29:11;;;;;;;11.63;5.92;;;;;;;20.35;96.04;99261.28;1744690;82;21007;-55
2022/08/24 01:31:37;;;;;;;9.90;6.12;;;;;;;20.32;95.91;99256.59;1744700;82;21603;-54
2022/08/24 01:34:03;;;;;;;14.20;7.00;;;;;;;20.29;95.85;99262.22;1744701;82;20987;-54
2022/08/24 01:36:44;;;;;;;14.13;6.87;;;;;;;20.29;95.65;99261.37;1744634;82;20996;-51
2022/08/24 01:39:29;;;;;;;11.38;6.97;;;;;;;20.23;95.50;99258.81;1744704;82;20995;-43
2022/08/24 01:41:56;;;;;;;9.80;6.65;;;;;;;20.21;96.08;99259.93;1744667;82;20963;-46
2022/08/24 01:44:24;;;;;;;10.23;6.58;;;;;;;20.17;95.88;99262.05;1744950;82;21499;-59
2022/08/24 01:46:53;;;;;;;10.18;7.30;;;;;;;20.13;96.71;99272.69;1744699;82;21028;-56
2022/08/24 01:49:23;;;;;;;13.43;7.47;;;;;;;20.09;96.76;99272.64;1751921;81;21007;-46
2022/08/24 01:51:49;;;;;;;10.40;7.53;;;;;;;20.06;96.90;99270.25;1752821;81;20976;-48
2022/08/24 01:54:15;;;;;;;14.73;7.45;;;;;;;20.03;97.05;99279.88;1753134;81;21038;-52
2022/08/24 01:56:41;;;;;;;14.55;7.42;;;;;;;20.01;97.41;99277.37;1753185;81;21500;-54
2022/08/24 01:59:07;;;;;;;15.00;8.53;;;;;;;20.02;97.24;99279.05;1753316;81;21019;-57
2022/08/24 02:01:38;;;;;;;18.77;8.68;;;;;;;20.01;97.05;99284.52;1753107;81;20975;-57
2022/08/24 02:04:06;;;;;;;19.62;8.50;;;;;;;19.93;98.44;99279.42;1753181;81;21461;-51
2022/08/24 02:06:32;;;;;;;16.95;7.92;;;;;;;19.94;97.63;99290.45;1753154;82;21030;-54
2022/08/24 02:08:58;;;;;;;12.40;8.25;;;;;;;19.93;97.84;99287.92;1753132;82;21030;-51
2022/08/24 02:11:24;;;;;;;13.50;8.40;;;;;;;19.90;98.75;99289.54;1753281;81;20995;-47
2022/08/24 02:13:51;;;;;;;11.85;8.33;;;;;;;19.86;98.33;99292.98;1753158;81;21488;-53
2022/08/24 02:16:17;;;;;;;11.50;8.30;;;;;;;19.80;98.74;99298.91;1753337;81;21018;-52
2022/08/24 02:18:43;;;;;;;20.82;8.48;;;;;;;19.79;97.76;99296.38;1753131;81;21023;-50
2022/08/24 02:21:11;;;;;;;16.60;9.65;;;;;;;19.70;97.74;99296.25;1753403;81;21014;-49
2022/08/24 02:23:39;;;;;;;12.03;9.50;;;;;;;19.65;98.62;99291.83;1752642;80;20927;-54
2022/08/24 02:26:08;;;;;;;20.92;11.20;;;;;;;19.61;98.90;99286.91;1753020;81;21030;-59
2022/08/24 02:28:35;;;;;;;15.38;10.98;;;;;;;19.50;100.00;99288.77;1752928;81;21488;-45
2022/08/24 02:31:04;;;;;;;14.40;10.08;;;;;;;19.51;100.00;99288.27;1753182;81;21034;-52
2022/08/24 02:33:29;;;;;;;17.55;10.43;;;;;;;19.51;100.00;99294.93;1752897;81;20974;-57
2022/08/24 02:35:55;;;;;;;18.95;10.35;;;;;;;19.52;100.00;99297.45;1752955;81;20970;-47
2022/08/24 02:38:22;;;;;;;15.20;9.95;;;;;;;19.45;100.00;99299.01;1753028;82;20995;-49
2022/08/24 02:40:48;;;;;;;13.47;11.23;;;;;;;19.44;100.00;99299.98;1753290;81;20959;-46
2022/08/24 02:43:15;;;;;;;15.03;11.00;;;;;;;19.41;100.00;99305.61;1753279;81;21485;-56
2022/08/24 02:45:44;;;;;;;14.75;10.90;;;;;;;19.43;100.00;99306.31;1753273;81;21026;-48
2022/08/24 02:48:13;;;;;;;15.78;11.05;;;;;;;19.42;100.00;99313.95;1751705;82;21150;-54
2022/08/24 02:50:44;;;;;;;;;;;;;;;19.40;100.00;99313.25;1752453;82;21050;-47
2022/08/24 02:53:12;;;;;;;16.23;11.12;;;;;;;19.31;100.00;99322.09;1750019;82;20107;-52
2022/08/24 02:56:49;;;;;;;18.10;10.95;;;;;;;19.24;100.00;99326.30;1791489;79;23334;-43
2022/08/24 02:59:15;;;;;;;24.70;12.15;;;;;;;19.12;100.00;99322.94;1793005;80;21062;-45
2022/08/24 03:01:41;;;;;;;17.17;12.25;;;;;;;19.04;100.00;99319.61;1793207;80;21006;-53
2022/08/24 03:04:07;;;;;;;17.07;11.78;;;;;;;19.05;100.00;99313.31;1793140;80;20967;-48
2022/08/24 03:06:33;;;;;;;22.37;12.00;;;;;;;19.13;100.00;99315.27;1793116;80;21519;-50
2022/08/24 03:08:59;;;;;;;17.27;12.07;;;;;;;19.15;100.00;99317.30;1792840;80;21011;-46
2022/08/24 03:11:25;;;;;;;20.37;11.78;;;;;;;19.18;100.00;99327.20;1793141;80;21026;-55
2022/08/24 03:13:51;;;;;;;15.75;12.20;;;;;;;19.22;100.00;99329.59;1793033;80;20991;-51
2022/08/24 03:16:17;;;;;;;17.07;11.65;;;;;;;19.25;100.00;99321.33;1793150;80;20995;-55
2022/08/24 03:18:42;;;;;;;20.40;12.78;;;;;;;19.29;100.00;99322.73;1793133;80;20967;-49
2022/08/24 03:21:09;;;;;;;16.32;12.68;;;;;;;19.35;100.00;99326.16;1793201;80;20990;-47
2022/08/24 03:23:36;;;;;;;22.85;13.70;;;;;;;19.35;100.00;99321.66;1793166;80;21484;-46
2022/08/24 03:26:04;;;;;;;20.93;12.27;;;;;;;19.34;100.00;99323.16;1793331;80;20991;-50
2022/08/24 03:28:29;;;;;;;19.00;11.68;;;;;;;19.29;100.00;99328.06;1792996;80;20971;-53
2022/08/24 03:30:55;;;;;;;18.35;12.07;;;;;;;19.26;100.00;99325.16;1793125;80;21472;-53
2022/08/24 03:33:21;;;;;;;17.95;12.63;;;;;;;19.27;100.00;99330.86;1793146;80;20999;-44
2022/08/24 03:35:47;;;;;;;16.12;10.82;;;;;;;19.25;100.00;99328.00;1793072;80;20960;-49
2022/08/24 03:38:13;;;;;;;18.45;11.88;;;;;;;19.24;100.00;99327.63;1793081;80;21428;-44
2022/08/24 03:40:40;;;;;;;17.05;12.28;;;;;;;19.20;100.00;99326.23;1793076;80;21491;-50
2022/08/24 03:43:07;;;;;;;23.38;12.40;;;;;;;19.20;100.00;99328.91;1793232;80;21021;-48
2022/08/24 03:45:33;;;;;;;19.25;12.98;;;;;;;19.20;100.00;99333.73;1793203;80;20963;-48
2022/08/24 03:47:58;;;;;;;21.37;12.85;;;;;;;19.20;100.00;99337.73;1793237;80;20999;-52
2022/08/24 03:50:25;;;;;;;20.43;13.03;;;;;;;19.22;100.00;99341.09;1793001;80;21002;-46
2022/08/24 03:52:52;;;;;;;22.17;13.43;;;;;;;19.27;100.00;99344.69;1793119;80;21014;-53
2022/08/24 03:55:18;;;;;;;24.57;14.80;;;;;;;19.20;100.00;99340.89;1787379;80;21007;-55
2022/08/24 03:57:45;;;;;;;29.30;14.43;;;;;;;19.15;100.00;99342.13;1772576;81;21349;-54
2022/08/24 04:00:12;;;;;;;23.10;15.78;;;;;;;19.16;100.00;99342.50;1772447;81;20995;-49
2022/08/24 04:02:38;;;;;;;22.55;14.87;;;;;;;19.14;100.00;99340.47;1772502;80;21004;-51
2022/08/24 04:05:06;;;;;;;28.87;15.58;;;;;;;19.24;100.00;99336.97;1772401;80;21473;-47
2022/08/24 04:07:32;;;;;;;23.18;14.98;;;;;;;19.27;100.00;99341.53;1771934;81;21003;-46
2022/08/24 04:09:58;;;;;;;29.57;14.90;;;;;;;19.30;100.00;99343.92;1771776;81;21592;-51
2022/08/24 04:12:23;;;;;;;28.35;15.63;;;;;;;19.35;100.00;99344.82;1771881;81;21505;-56
2022/08/24 04:14:54;;;;;;;25.60;14.93;;;;;;;19.37;100.00;99337.52;1771787;81;21044;-53
2022/08/24 04:17:20;;;;;;;24.57;14.95;;;;;;;19.43;100.00;99336.11;1771747;81;21059;-52
2022/08/24 04:19:58;;;;;;;22.22;14.25;;;;;;;19.45;100.00;99333.67;1771853;81;21508;-52
2022/08/24 04:22:32;;;;;;;26.12;15.40;;;;;;;19.43;100.00;99336.11;1771801;81;21513;-46
2022/08/24 04:24:58;;;;;;;26.68;13.90;;;;;;;19.43;100.00;99331.64;1771673;81;21023;-47
2022/08/24 04:27:25;;;;;;;22.48;13.72;;;;;;;19.41;100.00;99336.28;1771863;81;21456;-50
2022/08/24 04:29:51;;;;;;;19.05;12.30;;;;;;;19.43;100.00;99335.64;1771938;81;21031;-43
2022/08/24 04:32:18;;;;;;;21.37;13.80;;;;;;;19.50;100.00;99338.58;1771831;81;20992;-53
2022/08/24 04:34:45;;;;;;;17.80;13.00;;;;;;;19.45;100.00;99340.34;1771955;81;21124;-49
2022/08/24 04:37:12;;;;;;;21.40;12.95;;;;;;;19.48;100.00;99337.87;1771706;81;21489;-53
2022/08/24 04:39:39;;;;;;;23.00;13.43;;;;;;;19.43;100.00;99338.31;1772015;81;20999;-54
2022/08/24 04:42:06;;;;;;;17.48;12.43;;;;;;;19.46;100.00;99338.01;1771907;81;20964;-48
2022/08/24 04:44:32;;;;;;;20.48;12.82;;;;;;;19.51;100.00;99334.94;1772068;81;21011;-54
2022/08/24 04:46:58;;;;;;;15.08;10.80;;;;;;;19.55;100.00;99339.86;1771780;81;20964;-51
2022/08/24 04:49:23;;;;;;;18.40;11.22;;;;;;;19.54;100.00;99336.83;1771779;81;21000;-46
2022/08/24 04:51:49;;;;;;;13.62;9.70;;;;;;;19.60;100.00;99338.59;1771754;81;21043;-52
2022/08/24 04:54:15;;;;;;;15.60;10.43;;;;;;;19.66;100.00;99340.17;1771874;81;21670;-44
2022/08/24 04:56:41;;;;;;;13.28;9.43;;;;;;;19.73;100.00;99348.50;1771688;80;21513;-46
2022/08/24 04:59:07;;;;;;;14.60;9.45;;;;;;;19.75;100.00;99347.86;1771758;80;20983;-44
2022/08/24 05:01:33;;;;;;;17.40;9.78;;;;;;;19.72;100.00;99350.80;1771877;81;21047;-53
2022/08/24 05:03:59;;;;;;;13.90;10.08;;;;;;;19.83;100.00;99349.80;1771853;81;20996;-49
2022/08/24 05:06:29;;;;;;;21.85;9.73;;;;;;;19.92;100.00;99349.81;1771990;81;21540;-55
2022/08/24 05:08:55;;;;;;;12.10;9.43;;;;;;;19.94;100.00;99353.67;1771793;81;20996;-53
2022/08/24 05:11:22;;;;;;;15.10;9.50;;;;;;;20.01;100.00;99352.59;1771933;81;21040;-52
2022/08/24 05:13:54;;;;;;;20.85;10.20;;;;;;;20.09;100.00;99349.55;1771900;81;20999;-47
2022/08/24 05:16:22;;;;;;;12.82;10.20;;;;;;;20.11;100.00;99340.07;1771774;81;21043;-48
2022/08/24 05:18:48;;;;;;;;;;;;;;;20.21;100.00;99358.25;1774299;81;21039;-55
2022/08/24 05:21:18;;;;;;;14.65;10.08;;;;;;;20.20;100.00;99353.87;1772140;80;20093;-54
2022/08/24 05:23:45;;;;;;;18.05;9.83;;;;;;;20.30;100.00;99358.71;1771776;81;21536;-44
2022/08/24 05:26:19;;;;;;;17.97;10.10;;;;;;;20.43;100.00;99359.72;1771978;81;21002;-45
2022/08/24 05:28:46;;;;;;;19.73;9.28;;;;;;;20.44;100.00;99364.05;1771739;81;21023;-51
2022/08/24 05:31:20;;;;;;;15.80;9.18;;;;;;;20.53;100.00;99367.68;1771833;81;20964;-47
2022/08/24 05:33:47;;;;;;;14.83;10.45;;;;;;;20.55;99.57;99368.37;1771815;81;21449;-58
2022/08/24 05:36:33;;;;;;;13.08;9.48;;;;;;;20.60;99.34;99367.44;1771725;81;20995;-41
2022/08/24 05:39:03;;;;;;;17.97;9.13;;;;;;;20.64;99.35;99367.52;1771925;81;21520;-47
2022/08/24 05:41:29;;;;;;;21.60;9.53;;;;;;;20.66;98.95;99374.05;1771234;81;21032;-51
2022/08/24 05:43:55;;;;;;;15.53;10.70;;;;;;;20.52;99.04;99374.03;1771592;81;21781;-51
2022/08/24 05:46:20;;;;;;;20.60;11.18;;;;;;;20.55;99.53;99367.03;1771629;81;20948;-52
2022/08/24 05:48:47;;;;;;;17.10;11.65;;;;;;;20.65;99.25;99364.38;1771703;81;21000;-49
2022/08/24 05:51:13;;;;;;;18.77;11.77;;;;;;;20.49;100.00;99363.13;1771495;81;21008;-51
2022/08/24 05:53:40;;;;;;;20.75;11.38;;;;;;;20.49;100.00;99363.13;1770699;81;21522;-47
2022/08/24 05:56:10;;;;;;;18.55;11.18;;;;;;;20.57;99.75;99362.38;1771101;80;21000;-46
2022/08/24 05:58:37;;;;;;;18.92;12.13;;;;;;;20.61;99.21;99366.50;1771611;81;20976;-46
2022/08/24 06:01:09;;;;;;;19.17;10.63;;;;;;;20.63;99.07;99369.00;1772178;80;20987;-48
2022/08/24 06:03:36;;;;;;;21.40;11.53;;;;;;;20.68;99.17;99370.73;1771793;81;20963;-49
2022/08/24 06:06:05;;;;;;;20.75;11.88;;;;;;;20.53;99.92;99374.36;1771858;81;21511;-50
2022/08/24 06:08:31;;;;;;;25.65;13.32;;;;;;;20.55;99.79;99364.36;1770711;81;21057;-51
2022/08/24 06:10:57;;;;;;;29.27;11.97;;;;;;;20.58;99.74;99365.92;1770765;81;21022;-45
2022/08/24 06:13:23;;;;;;;23.12;11.83;;;;;;;20.60;99.81;99358.59;1771686;79;20982;-50
2022/08/24 06:15:48;;;;;;;24.43;12.10;;;;;;;20.59;99.90;99363.11;1771611;81;20963;-48
2022/08/24 06:18:14;;;;;;;24.40;12.98;;;;;;;20.61;99.28;99358.48;1771624;81;21007;-49
2022/08/24 06:20:41;;;;;;;21.75;13.43;;;;;;;20.55;99.30;99364.87;1771643;81;21027;-53
2022/08/24 06:23:08;;;;;;;22.40;12.88;;;;;;;20.50;100.00;99362.63;1771822;81;20955;-46
2022/08/24 06:28:06;;;;;;;22.95;13.78;;;;;;;20.59;100.00;99376.47;1739308;81;20982;-50
2022/08/24 06:30:33;;;;;;;22.95;14.40;;;;;;;20.61;99.69;99377.19;1771589;79;21067;-51
2022/08/24 06:33:01;;;;;;;18.57;14.20;;;;;;;20.64;100.00;99384.05;1771764;81;21025;-49
2022/08/24 06:35:27;;;;;;;20.97;15.43;;;;;;;20.75;99.90;99377.68;1771562;81;20956;-51
2022/08/24 06:37:53;;;;;;;26.45;14.63;;;;;;;20.79;99.90;99379.06;1771582;81;21022;-48
2022/08/24 06:40:19;;;;;;;24.30;16.57;;;;;;;20.85;99.73;99379.82;1772090;79;21557;-46
2022/08/24 06:42:47;;;;;;;32.95;16.05;;;;;;;20.89;99.04;99377.19;1771634;81;20975;-55
2022/08/24 06:45:13;;;;;;;21.40;15.48;;;;;;;20.92;98.79;99387.59;1771669;80;20990;-41
2022/08/24 06:47:41;;;;;;;24.55;16.00;;;;;;;20.96;98.60;99384.13;1771365;81;21260;-50
2022/08/24 06:50:07;;;;;;;23.77;14.63;;;;;;;20.84;98.66;99387.48;1771406;81;21069;-52
2022/08/24 06:52:34;;;;;;;26.65;15.80;;;;;;;20.87;98.59;99388.53;1771744;81;20987;-49
2022/08/24 06:55:01;;;;;;;28.20;16.12;;;;;;;20.84;98.48;99390.98;1770937;80;21003;-41
2022/08/24 06:57:27;;;;;;;27.37;16.00;;;;;;;20.88;98.47;99383.03;1764044;81;21054;-46
2022/08/24 06:59:53;;;;;;;23.52;16.57;;;;;;;20.88;98.58;99383.03;1762678;81;20990;-50
2022/08/24 07:02:20;;;;;;;23.45;16.52;;;;;;;20.90;98.53;99377.52;1763122;81;21480;-50
2022/08/24 07:04:46;;;;;;;24.72;15.50;;;;;;;20.87;98.95;99375.16;1762591;81;20990;-44
2022/08/24 07:07:12;;;;;;;22.83;15.27;;;;;;;20.92;98.23;99379.57;1762506;81;21550;-51
2022/08/24 07:09:39;;;;;;;25.25;14.95;;;;;;;20.93;98.06;99379.90;1763603;81;21511;-53
2022/08/24 07:12:05;;;;;;;21.40;15.63;;;;;;;20.94;97.83;99384.27;1763775;81;20997;-52
2022/08/24 07:14:31;;;;;;;24.43;14.37;;;;;;;21.01;98.05;99385.36;1763189;81;21738;-49
2022/08/24 07:16:57;;;;;;;18.02;12.65;;;;;;;21.07;97.92;99391.43;1762239;81;20987;-49
2022/08/24 07:19:23;;;;;;;20.92;14.05;;;;;;;21.07;97.09;99397.28;1762321;80;21371;-44
2022/08/24 07:21:49;;;;;;;21.82;13.32;;;;;;;21.02;97.17;99401.72;1762426;81;20995;-47
2022/08/24 07:24:15;;;;;;;23.10;12.98;;;;;;;21.08;97.18;99409.64;1762737;81;20972;-53
2022/08/24 07:26:41;;;;;;;17.17;12.55;;;;;;;21.09;97.01;99409.50;1763001;81;20979;-48
2022/08/24 07:29:14;;;;;;;17.73;12.18;;;;;;;21.03;96.62;99410.61;1762215;81;21006;-50
2022/08/24 07:31:42;;;;;;;16.00;11.85;;;;;;;21.02;96.81;99413.76;1762209;81;21086;-46
2022/08/24 07:34:10;;;;;;;26.00;12.95;;;;;;;21.05;96.63;99411.30;1763256;81;20991;-47
2022/08/24 07:36:38;;;;;;;22.82;12.07;;;;;;;21.02;96.74;99414.27;1763348;81;20983;-50
2022/08/24 07:39:04;;;;;;;23.18;11.28;;;;;;;21.13;96.79;99418.56;1763413;81;21413;-45
2022/08/24 07:41:31;;;;;;;15.20;11.05;;;;;;;21.24;96.30;99418.35;1763556;81;20991;-41
2022/08/24 07:43:57;;;;;;;16.85;11.68;;;;;;;21.34;96.28;99416.47;1763822;81;21511;-48
2022/08/24 07:46:23;;;;;;;17.98;11.25;;;;;;;21.43;95.71;99421.41;1763663;81;21022;-52
2022/08/24 07:48:49;;;;;;;25.35;11.93;;;;;;;21.57;95.67;99421.40;1763727;80;21013;-58
2022/08/24 07:51:18;;;;;;;26.33;12.90;;;;;;;21.66;94.54;99411.11;1763700;81;21007;-45
2022/08/24 07:53:44;;;;;;;24.10;12.60;;;;;;;21.72;94.22;99413.20;1763655;81;21516;-51
2022/08/24 07:56:11;;;;;;;19.92;12.93;;;;;;;21.86;93.84;99414.47;1765456;81;21010;-46
2022/08/24 07:58:37;;;;;;;;;;;;;;;21.88;93.29;99420.50;1777395;81;20974;-52
2022/08/24 08:01:05;;;;;;;22.07;12.80;;;;;;;21.91;93.01;99415.36;1774885;81;20104;-46
2022/08/24 08:03:32;;;;;;;;;;;;;;;21.91;93.02;99426.89;1777385;81;21010;-51
2022/08/24 08:06:02;;;;;;;22.98;12.25;;;;;;;21.90;92.96;99425.70;1774692;79;20128;-49
2022/08/24 08:08:28;;;;;;;22.02;11.75;;;;;;;21.93;92.94;99429.42;1774708;81;20982;-43
2022/08/24 08:10:55;;;;;;;17.87;11.38;;;;;;;21.99;92.97;99427.45;1774973;81;20979;-57
2022/08/24 08:13:20;;;;;;;21.68;10.72;;;;;;;21.98;92.79;99427.13;1774807;81;20951;-43
2022/08/24 08:15:46;;;;;;;20.30;10.53;;;;;;;21.88;91.24;99433.06;1774626;81;21484;-51
2022/08/24 08:18:13;;;;;;;19.50;11.08;;;;;;;22.09;91.78;99438.93;1774747;81;21484;-44
2022/08/24 08:20:40;;;;;;;16.73;11.12;;;;;;;22.12;91.16;99439.97;1774890;81;21507;-53
2022/08/24 08:25:56;;;;;;;18.67;10.38;;;;;;;22.26;91.18;99451.11;1774731;81;20962;-46
2022/08/24 08:28:23;;;;;;;18.80;10.10;;;;;;;22.42;91.64;99448.58;1774619;81;20967;-53
2022/08/24 08:30:51;;;;;;;19.45;9.98;;;;;;;22.42;89.92;99453.94;1774663;81;21568;-50
2022/08/24 08:33:16;;;;;;;;;;;;;;;22.51;90.48;99458.34;1777139;81;21084;-50
2022/08/24 08:35:43;;;;;;;15.77;8.97;;;;;;;22.46;89.18;99452.61;1774966;80;20132;-50
2022/08/24 08:38:10;;;;;;;15.67;8.80;;;;;;;22.41;89.39;99455.78;1774999;81;21038;-50
2022/08/24 08:41:06;;;;;;;23.62;10.10;;;;;;;22.41;89.07;99461.61;1774667;81;21089;-49
2022/08/24 08:43:54;;;;;;;15.65;9.55;;;;;;;22.27;88.86;99463.55;1774711;81;20989;-43
2022/08/24 08:47:08;;;;;;;22.07;11.50;;;;;;;22.10;88.23;99462.52;1774434;81;20975;-52
2022/08/24 08:49:55;;;;;;;14.85;9.53;;;;;;;22.45;89.31;99469.70;1773840;81;21018;-49
2022/08/24 08:52:55;;;;;;;19.40;10.00;;;;;;;22.58;87.92;99474.14;1774673;81;21471;-47
2022/08/24 08:55:41;;;;;;;14.87;9.78;;;;;;;22.71;87.69;99476.39;1773842;81;21026;-50
2022/08/24 08:58:29;;;;;;;19.10;10.13;;;;;;;22.72;87.75;99475.88;1749552;80;21517;-49
2022/08/24 09:01:22;;;;;;;15.98;9.73;;;;;;;22.83;88.11;99475.64;1741963;82;20960;-56
2022/08/24 09:04:15;;;;;;;28.85;9.93;;;;;;;22.84;87.05;99476.47;1735126;82;20980;-44
2022/08/24 09:07:01;;;;;;;19.98;10.13;;;;;;;22.81;86.13;99470.91;1741955;82;21627;-47
2022/08/24 09:09:48;;;;;;;20.97;10.32;;;;;;;23.07;87.03;99472.77;1740896;82;21437;-51
2022/08/24 09:12:20;;;;;;;;;;;;;;;23.24;85.94;99476.34;1723275;82;20995;-45
2022/08/24 09:15:04;;;;;;;15.65;9.48;;;;;;;23.46;84.41;99476.25;1729967;82;20095;-48
2022/08/24 09:17:41;;;;;;;20.30;10.15;;;;;;;23.61;85.20;99478.62;1741985;82;20967;-55
2022/08/24 09:20:57;;;;;;;20.10;9.75;;;;;;;23.56;82.12;99481.81;1741961;82;20991;-50
2022/08/24 09:23:47;;;;;;;23.07;10.23;;;;;;;23.76;83.54;99481.02;1741957;82;21007;-44
2022/08/24 09:26:31;;;;;;;22.02;9.80;;;;;;;23.78;81.69;99487.57;1741882;82;21509;-58
2022/08/24 09:29:12;;;;;;;19.45;9.93;;;;;;;23.92;83.65;99481.59;1741971;82;20980;-55
2022/08/24 09:32:01;;;;;;;21.55;9.93;;;;;;;24.06;82.87;99479.23;1742120;82;20996;-56
2022/08/24 09:34:55;;;;;;;21.12;9.95;;;;;;;24.37;82.15;99482.59;1741929;82;21414;-56
2022/08/24 09:37:48;;;;;;;21.15;9.80;;;;;;;24.94;81.24;99486.55;1741313;82;20980;-54
2022/08/24 09:40:58;;;;;;;23.25;10.13;;;;;;;25.51;79.51;99488.19;1741941;82;20991;-58
2022/08/24 09:43:59;;;;;;;17.77;9.85;;;;;;;25.68;73.84;99482.19;1741889;82;20957;-45
2022/08/24 09:46:59;;;;;;;19.75;9.63;;;;;;;25.86;76.22;99489.47;1741037;82;20996;-50
2022/08/24 09:50:01;;;;;;;13.08;8.85;;;;;;;25.63;75.29;99493.51;1742028;82;21063;-55
2022/08/24 09:52:41;;;;;;;16.55;8.55;;;;;;;25.43;75.15;99489.55;1742006;82;21007;-53
2022/08/24 09:55:36;;;;;;;19.05;9.15;;;;;;;25.09;73.67;99494.73;1741910;82;21019;-50
2022/08/24 09:58:16;;;;;;;23.27;9.35;;;;;;;24.69;74.22;99489.30;1747992;81;21004;-50
2022/08/24 10:00:57;;;;;;;22.20;11.43;;;;;;;24.52;75.43;99487.14;1774452;81;21011;-51
2022/08/24 10:03:43;;;;;;;16.87;9.40;;;;;;;24.42;75.65;99489.64;1776302;80;20948;-46
2022/08/24 10:06:23;;;;;;;23.15;9.25;;;;;;;24.43;76.31;99490.83;1778565;81;20990;-54
2022/08/24 10:09:16;;;;;;;16.50;9.15;;;;;;;24.51;76.31;99481.39;1746100;80;21008;-50
2022/08/24 10:11:50;;;;;;;17.62;9.00;;;;;;;24.56;76.42;99482.75;1765105;80;21071;-57
2022/08/24 10:14:55;;;;;;;20.57;9.65;;;;;;;24.58;76.67;99486.14;1777113;80;21493;-47
2022/08/24 10:18:11;;;;;;;23.30;9.45;;;;;;;24.43;75.63;99481.41;1777413;80;21532;-49
2022/08/24 10:21:00;;;;;;;23.90;9.28;;;;;;;24.34;76.64;99478.41;1777108;80;21079;-49
2022/08/24 10:23:50;;;;;;;19.25;8.70;;;;;;;24.73;76.77;99479.03;1777933;80;21008;-55
2022/08/24 10:26:24;;;;;;;20.77;9.48;;;;;;;24.94;75.93;99483.00;1778320;81;20995;-53
2022/08/24 10:29:22;;;;;;;18.10;8.55;;;;;;;24.94;75.51;99487.03;1776781;80;21149;-50
2022/08/24 10:32:22;;;;;;;15.50;9.03;;;;;;;25.09;75.23;99483.98;1777286;80;21690;-51
2022/08/24 10:35:14;;;;;;;14.43;8.30;;;;;;;25.09;74.17;99481.28;1777095;80;21050;-45
2022/08/24 10:41:44;;;;;;;16.95;8.13;;;;;;;25.15;73.61;99482.44;1778713;81;21070;-54
2022/08/24 10:44:39;;;;;;;13.28;7.78;;;;;;;24.99;73.86;99476.60;1778748;80;20992;-56
2022/08/24 10:47:29;;;;;;;16.07;7.70;;;;;;;25.09;74.07;99479.94;1778908;81;21010;-48
2022/08/24 10:50:29;;;;;;;21.85;9.53;;;;;;;25.12;74.44;99482.26;1778695;81;20987;-52
2022/08/24 10:53:19;;;;;;;18.10;8.40;;;;;;;25.18;74.16;99478.89;1778632;81;21513;-42
2022/08/24 10:55:51;;;;;;;18.00;7.80;;;;;;;25.23;74.22;99473.83;1778628;81;21019;-50
2022/08/24 10:58:45;;;;;;;15.48;8.48;;;;;;;25.42;74.24;99477.95;1741623;82;21044;-55
2022/08/24 11:01:26;;;;;;;18.70;8.50;;;;;;;25.47;73.15;99481.48;1753104;82;21490;-50
2022/08/24 11:04:07;;;;;;;17.17;8.30;;;;;;;25.62;73.44;99473.48;1752858;82;21075;-53
2022/08/24 11:06:41;;;;;;;17.50;7.75;;;;;;;26.63;73.72;99483.66;1752112;82;21073;-44
2022/08/24 11:09:14;;;;;;;21.33;7.20;;;;;;;27.44;70.79;99481.58;1753330;82;21021;-51
2022/08/24 11:11:47;;;;;;;13.40;6.75;;;;;;;27.99;66.03;99481.45;1752590;82;21019;-49
2022/08/24 11:14:28;;;;;;;17.02;6.33;;;;;;;28.72;63.60;99478.53;1743115;82;21058;-46
2022/08/24 11:17:16;;;;;;;15.25;6.10;;;;;;;29.42;64.41;99478.52;1702372;83;21079;-46
2022/08/24 11:19:42;;;;;;;15.45;7.00;;;;;;;30.19;62.98;99479.94;1703395;84;21003;-48
2022/08/24 11:22:39;;;;;;;17.67;5.87;;;;;;;30.94;61.18;99486.48;1703368;84;21058;-56
2022/08/24 11:25:20;;;;;;;18.42;6.47;;;;;;;31.73;58.62;99488.59;1703146;84;21047;-44
2022/08/24 11:27:50;;;;;;;18.65;6.15;;;;;;;32.18;49.63;99497.20;1703448;84;21477;-50
2022/08/24 11:30:27;;;;;;;17.50;6.45;;;;;;;32.18;49.63;99497.20;1703452;84;20995;-44
2022/08/24 11:33:00;;;;;;;9.50;5.17;;;;;;;32.23;49.37;99488.39;1703421;84;21528;-45
2022/08/24 11:35:38;;;;;;;18.02;6.50;;;;;;;33.03;53.19;99478.11;1703440;84;20998;-46
2022/08/24 11:38:18;;;;;;;19.17;6.12;;;;;;;33.07;51.24;99487.48;1703198;84;20979;-51
2022/08/24 11:41:04;;;;;;;16.80;6.70;;;;;;;33.47;49.00;99477.48;1702425;84;21512;-49
2022/08/24 11:44:13;;;;;;;21.70;6.50;;;;;;;33.69;48.01;99481.10;1702682;84;21039;-52
2022/08/24 11:46:50;;;;;;;15.95;5.62;;;;;;;33.54;48.63;99483.67;1702983;84;21019;-48
2022/08/24 11:49:25;;;;;;;17.80;6.58;;;;;;;33.93;46.20;99486.09;1703621;83;21488;-49
2022/08/24 11:52:11;;;;;;;14.03;6.05;;;;;;;34.55;46.84;99492.58;1703659;83;21005;-53
2022/08/24 11:54:50;;;;;;;14.98;6.30;;;;;;;34.64;46.22;99488.94;1703331;84;21540;-54
2022/08/24 11:57:33;;;;;;;16.05;6.30;;;;;;;34.96;43.35;99485.32;1711757;82;21004;-49